createdAt,value
2019-05-10T00:02:39.701Z,10.90
2019-05-10T00:08:04.032Z,10.90
2019-05-10T00:13:29.360Z,10.90
2019-05-10T00:18:40.734Z,10.90
2019-05-10T00:23:46.802Z,10.80
2019-05-10T00:28:54.048Z,10.70
2019-05-10T00:33:58.493Z,10.70
2019-05-10T00:39:02.866Z,10.60
2019-05-10T00:44:07.256Z,10.60
2019-05-10T00:49:17.613Z,10.50
2019-05-10T00:54:21.356Z,10.50
2019-05-10T00:59:25.816Z,10.50
2019-05-10T01:04:32.042Z,10.50
2019-05-10T01:09:36.627Z,10.50
2019-05-10T01:14:41.748Z,10.60
2019-05-10T01:19:46.294Z,10.60
2019-05-10T01:24:50.821Z,10.70
2019-05-10T01:29:56.859Z,10.70
2019-05-10T01:35:01.184Z,10.70
2019-05-10T01:40:09.957Z,10.70
2019-05-10T01:45:14.642Z,10.70
2019-05-10T01:50:20.916Z,10.60
2019-05-10T01:55:29.483Z,10.50
2019-05-10T02:00:37.114Z,10.50
2019-05-10T02:05:41.399Z,10.50
2019-05-10T02:10:46.379Z,10.50
2019-05-10T02:15:50.772Z,10.50
2019-05-10T02:20:55.251Z,10.50
2019-05-10T02:26:09.323Z,10.50
2019-05-10T02:31:06.592Z,10.50
2019-05-10T02:36:10.983Z,10.50
2019-05-10T02:41:34.927Z,10.50
2019-05-10T02:46:44.113Z,10.50
2019-05-10T02:51:50.304Z,10.50
2019-05-10T02:56:56.335Z,10.50
2019-05-10T03:02:05.038Z,10.40
2019-05-10T03:07:11.202Z,10.40
2019-05-10T03:12:28.887Z,10.40
2019-05-10T03:17:38.690Z,10.40
2019-05-10T03:22:46.342Z,10.40
2019-05-10T03:27:50.908Z,10.40
2019-05-10T03:32:59.438Z,10.40
2019-05-10T03:38:04.212Z,10.40
2019-05-10T03:43:08.725Z,10.40
2019-05-10T03:48:17.223Z,10.40
2019-05-10T03:53:29.080Z,10.40
2019-05-10T03:58:35.165Z,10.30
2019-05-10T04:03:45.716Z,10.30
2019-05-10T04:08:53.026Z,10.30
2019-05-10T04:13:59.454Z,10.30
2019-05-10T04:19:05.216Z,10.30
2019-05-10T04:24:18.174Z,10.30
2019-05-10T04:29:19.959Z,10.30
2019-05-10T04:34:24.504Z,10.20
2019-05-10T04:39:29.444Z,10.20
2019-05-10T04:44:34.031Z,10.20
2019-05-10T04:49:42.377Z,10.20
2019-05-10T04:54:46.792Z,10.20
2019-05-10T04:59:51.479Z,10.20
2019-05-10T05:04:56.945Z,10.20
2019-05-10T05:10:01.287Z,10.20
2019-05-10T05:15:09.623Z,10.20
2019-05-10T05:20:15.000Z,10.20
2019-05-10T05:25:22.025Z,10.10
2019-05-10T05:30:30.473Z,10.10
2019-05-10T05:35:34.774Z,10.00
2019-05-10T05:40:40.777Z,10.00
2019-05-10T05:45:50.701Z,9.90
2019-05-10T05:50:55.667Z,10.00
2019-05-10T05:56:03.698Z,10.00
2019-05-10T06:01:06.478Z,10.10
2019-05-10T06:06:21.434Z,10.20
2019-05-10T06:11:16.764Z,10.20
2019-05-10T06:16:22.310Z,10.10
2019-05-10T06:21:28.109Z,10.10
2019-05-10T06:26:32.401Z,10.10
2019-05-10T06:31:36.795Z,10.10
2019-05-10T06:36:41.001Z,10.10
2019-05-10T06:41:58.357Z,10.10
2019-05-10T06:47:08.026Z,10.20
2019-05-10T06:52:08.225Z,10.30
2019-05-10T06:57:17.699Z,10.50
2019-05-10T07:02:26.855Z,10.60
2019-05-10T07:07:43.353Z,10.70
2019-05-10T07:12:33.322Z,10.90
2019-05-10T07:17:43.615Z,10.90
2019-05-10T07:22:43.631Z,11.10
2019-05-10T07:27:50.281Z,11.10
2019-05-10T07:32:54.666Z,11.20
2019-05-10T07:37:59.773Z,11.30
2019-05-10T07:43:03.987Z,11.40
2019-05-10T07:48:10.312Z,11.50
2019-05-10T07:53:16.351Z,11.60
2019-05-10T07:58:20.174Z,11.60
2019-05-10T08:03:24.373Z,11.70
2019-05-10T08:08:29.616Z,11.70
2019-05-10T08:13:40.505Z,11.80
2019-05-10T08:18:44.745Z,12.00
2019-05-10T08:23:48.993Z,12.10
2019-05-10T08:28:53.199Z,12.00
2019-05-10T08:33:59.020Z,12.00
2019-05-10T08:39:10.658Z,12.00
2019-05-10T08:44:19.439Z,12.00
2019-05-10T08:49:21.923Z,12.10
2019-05-10T08:54:26.564Z,12.20
2019-05-10T08:59:31.016Z,12.30
2019-05-10T09:04:42.774Z,12.50
2019-05-10T09:09:49.714Z,12.50
2019-05-10T09:14:48.881Z,12.70
2019-05-10T09:19:53.350Z,12.80
2019-05-10T09:24:57.553Z,13.20
2019-05-10T09:30:02.964Z,13.40
2019-05-10T09:35:09.230Z,13.60
2019-05-10T09:40:13.713Z,13.40
2019-05-10T09:45:22.216Z,13.40
2019-05-10T09:50:30.477Z,13.40
2019-05-10T09:55:31.682Z,13.50
2019-05-10T10:00:37.902Z,13.60
2019-05-10T10:05:42.475Z,13.80
2019-05-10T10:10:47.533Z,14.00
2019-05-10T10:15:54.924Z,13.90
2019-05-10T10:20:59.142Z,14.00
2019-05-10T10:26:03.329Z,13.90
2019-05-10T10:31:08.462Z,13.70
2019-05-10T10:36:13.039Z,13.50
2019-05-10T10:41:25.911Z,13.40
2019-05-10T10:46:23.195Z,13.10
2019-05-10T10:51:32.172Z,12.80
2019-05-10T10:56:33.436Z,12.40
2019-05-10T11:01:49.922Z,12.10
2019-05-10T11:06:45.061Z,11.80
2019-05-10T11:11:51.575Z,11.60
2019-05-10T11:16:57.124Z,11.50
2019-05-10T11:22:02.225Z,11.40
2019-05-10T11:27:13.139Z,11.40
2019-05-10T11:32:16.788Z,11.40
2019-05-10T11:37:31.058Z,11.40
2019-05-10T11:42:25.655Z,11.50
2019-05-10T11:47:31.275Z,11.80
2019-05-10T11:52:36.576Z,12.00
2019-05-10T12:03:03.201Z,12.70
2019-05-10T12:07:54.876Z,13.00
2019-05-10T12:18:05.352Z,13.50
2019-05-10T12:23:13.504Z,13.60
2019-05-10T12:26:00.228Z,12.40
2019-05-10T12:26:59.088Z,13.40
2019-05-10T12:28:20.972Z,13.60
2019-05-10T12:33:27.358Z,13.60
2019-05-10T12:38:29.611Z,13.50
2019-05-10T12:43:33.379Z,13.60
2019-05-10T12:48:37.602Z,13.70
2019-05-10T12:53:47.527Z,13.60
2019-05-10T12:58:56.225Z,13.50
2019-05-10T13:03:54.065Z,13.40
2019-05-10T13:08:58.305Z,13.30
2019-05-10T13:14:07.322Z,13.20
2019-05-10T13:19:08.430Z,13.10
2019-05-10T13:24:12.657Z,13.10
2019-05-10T13:29:16.858Z,12.90
2019-05-10T13:34:24.095Z,12.80
2019-05-10T13:39:27.692Z,12.70
2019-05-10T13:44:37.062Z,12.60
2019-05-10T13:49:38.345Z,12.60
2019-05-10T13:54:42.565Z,12.70
2019-05-10T13:59:49.106Z,12.70
2019-05-10T14:04:52.733Z,12.70
2019-05-10T14:09:56.993Z,12.80
2019-05-10T14:15:08.323Z,12.90
2019-05-10T14:20:19.402Z,13.00
2019-05-10T14:25:15.686Z,13.00
2019-05-10T14:30:19.918Z,13.10
2019-05-10T14:35:28.582Z,13.20
2019-05-10T14:40:33.234Z,13.60
2019-05-10T14:45:37.577Z,14.40
2019-05-10T14:50:46.275Z,15.50
2019-05-10T14:55:47.923Z,16.00
2019-05-10T15:00:52.291Z,16.10
2019-05-10T15:06:01.358Z,16.30
2019-05-10T15:11:02.646Z,16.60
2019-05-10T15:16:12.371Z,16.10
2019-05-10T15:21:15.848Z,15.90
2019-05-10T15:26:20.085Z,15.70
2019-05-10T15:31:29.308Z,15.30
2019-05-10T15:36:31.760Z,15.00
2019-05-10T15:41:36.065Z,15.00
2019-05-10T15:46:42.328Z,15.10
2019-05-10T15:51:49.093Z,15.10
2019-05-10T15:56:55.470Z,15.10
2019-05-10T16:01:58.294Z,15.30
2019-05-10T16:07:03.131Z,15.40
2019-05-10T16:12:08.711Z,15.40
2019-05-10T16:17:17.647Z,15.40
2019-05-10T16:22:19.110Z,15.70
2019-05-10T16:27:38.921Z,16.10
2019-05-10T16:32:39.645Z,16.40
2019-05-10T16:37:43.882Z,16.70
2019-05-10T16:42:48.524Z,16.50
2019-05-10T16:47:52.754Z,16.30
2019-05-10T16:52:59.319Z,16.00
2019-05-10T16:58:03.197Z,15.90
2019-05-10T17:03:07.419Z,15.80
2019-05-10T17:08:11.598Z,15.60
2019-05-10T17:13:16.930Z,15.50
2019-05-10T17:18:24.037Z,15.40
2019-05-10T17:23:27.238Z,15.00
2019-05-10T17:28:35.418Z,14.70
2019-05-10T17:33:42.723Z,14.40
2019-05-10T17:38:47.388Z,14.10
2019-05-10T17:43:49.295Z,13.90
2019-05-10T17:48:53.544Z,13.80
2019-05-10T17:54:01.507Z,13.60
2019-05-10T17:59:05.905Z,13.40
2019-05-10T18:04:10.956Z,13.40
2019-05-10T18:09:15.222Z,13.30
2019-05-10T18:14:19.733Z,13.30
2019-05-10T18:19:25.159Z,13.20
2019-05-10T18:24:35.625Z,13.20
2019-05-10T18:29:36.199Z,13.20
2019-05-10T18:34:40.431Z,13.10
2019-05-10T18:39:47.486Z,13.10
2019-05-10T18:44:51.926Z,13.10
2019-05-10T18:49:56.698Z,13.00
2019-05-10T18:55:00.955Z,13.00
2019-05-10T19:00:05.797Z,13.00
2019-05-10T19:05:13.467Z,12.90
2019-05-10T19:10:17.511Z,12.90
2019-05-10T19:15:21.826Z,12.90
2019-05-10T20:23:55.783Z,12.60
2019-05-10T20:56:45.982Z,11.80
2019-05-10T21:02:30.977Z,11.80
2019-05-10T21:07:44.801Z,11.70
2019-05-10T21:12:58.618Z,11.60
2019-05-10T21:24:09.851Z,11.60
2019-05-10T21:29:09.798Z,11.50
2019-05-10T21:45:57.449Z,11.50
2019-05-10T21:51:56.125Z,11.60
2019-05-10T22:01:53.641Z,11.50
2019-05-10T22:07:11.042Z,11.50
2019-05-10T22:18:51.513Z,11.40
2019-05-10T22:23:33.833Z,11.40
2019-05-10T22:29:41.785Z,11.30
2019-05-10T22:34:15.805Z,11.20
2019-05-10T22:39:27.216Z,11.10
2019-05-10T22:50:08.731Z,11.10
2019-05-10T23:01:17.099Z,11.10
2019-05-10T23:13:43.675Z,11.20
2019-05-10T23:18:01.976Z,11.20
2019-05-10T23:23:02.495Z,11.20
2019-05-10T23:28:06.234Z,11.20
2019-05-10T23:33:42.471Z,11.20
2019-05-10T23:38:55.465Z,11.10
2019-05-10T23:44:10.403Z,11.00
2019-05-10T23:49:19.932Z,11.00
2019-05-10T23:54:33.517Z,10.90
2019-05-10T23:59:28.936Z,10.80
